Terminal Aerodrome Forecast
Issued by NWS

Home | Current Version | Previous Version | Text Only | Print | Product List | Glossary On
Versions: 1 2 3 4 5 6 7 8 9 10 11 12 13 14 15 16 17 18 19 20
459
FTUS43 KLSX 041453 AAA
TAFUIN
TAF AMD
KUIN 041453Z 0415/0512 13007KT 1SM -SN BR SCT003 OVC007
      TEMPO 0415/0417 1/4SM +SN FG BKN003
     FM041800 15005KT 2SM -RA BR OVC008
     FM042100 23006KT P6SM OVC015
     FM050000 25005KT P6SM SKC
     FM050800 VRB03KT 3SM BR SCT250=

USA.gov is the U.S. government's official web portal to all federal, state and local government web resources and services.